sensor_id;sensor_type;location;lat;lon;timestamp;P1;durP1;ratioP1;P2;durP2;ratioP2
12228;SDS011;6177;52.402;9.800;2023-09-08T00:00:41;5.65;;;5.13;;
12228;SDS011;6177;52.402;9.800;2023-09-08T00:03:06;5.45;;;4.85;;
12228;SDS011;6177;52.402;9.800;2023-09-08T00:05:32;5.28;;;4.82;;
12228;SDS011;6177;52.402;9.800;2023-09-08T00:07:57;5.68;;;5.10;;
12228;SDS011;6177;52.402;9.800;2023-09-08T00:10:23;6.05;;;5.65;;
12228;SDS011;6177;52.402;9.800;2023-09-08T00:12:48;5.32;;;4.82;;
12228;SDS011;6177;52.402;9.800;2023-09-08T00:15:14;5.88;;;5.18;;
12228;SDS011;6177;52.402;9.800;2023-09-08T00:17:39;5.50;;;5.20;;
12228;SDS011;6177;52.402;9.800;2023-09-08T00:20:06;5.72;;;5.32;;
12228;SDS011;6177;52.402;9.800;2023-09-08T00:22:35;5.47;;;5.07;;
12228;SDS011;6177;52.402;9.800;2023-09-08T00:25:01;5.50;;;5.20;;
12228;SDS011;6177;52.402;9.800;2023-09-08T00:27:27;5.47;;;5.18;;
12228;SDS011;6177;52.402;9.800;2023-09-08T00:29:52;5.63;;;5.22;;
12228;SDS011;6177;52.402;9.800;2023-09-08T00:32:18;5.75;;;5.30;;
12228;SDS011;6177;52.402;9.800;2023-09-08T00:34:43;6.25;;;5.50;;
12228;SDS011;6177;52.402;9.800;2023-09-08T00:37:09;5.50;;;5.10;;
12228;SDS011;6177;52.402;9.800;2023-09-08T00:39:38;5.97;;;5.57;;
12228;SDS011;6177;52.402;9.800;2023-09-08T00:42:03;6.82;;;6.30;;
12228;SDS011;6177;52.402;9.800;2023-09-08T00:44:29;5.82;;;5.22;;
12228;SDS011;6177;52.402;9.800;2023-09-08T00:46:55;5.85;;;5.35;;
12228;SDS011;6177;52.402;9.800;2023-09-08T00:49:21;5.63;;;5.32;;
12228;SDS011;6177;52.402;9.800;2023-09-08T00:51:46;5.78;;;5.35;;
12228;SDS011;6177;52.402;9.800;2023-09-08T00:54:12;5.82;;;5.15;;
12228;SDS011;6177;52.402;9.800;2023-09-08T00:56:38;6.97;;;6.47;;
12228;SDS011;6177;52.402;9.800;2023-09-08T00:59:04;6.13;;;5.63;;
12228;SDS011;6177;52.402;9.800;2023-09-08T01:01:30;6.60;;;5.95;;
12228;SDS011;6177;52.402;9.800;2023-09-08T01:03:56;6.00;;;5.53;;
12228;SDS011;6177;52.402;9.800;2023-09-08T01:06:21;6.03;;;5.63;;
12228;SDS011;6177;52.402;9.800;2023-09-08T01:08:47;6.75;;;5.72;;
12228;SDS011;6177;52.402;9.800;2023-09-08T01:11:13;6.25;;;5.85;;
12228;SDS011;6177;52.402;9.800;2023-09-08T01:13:39;6.28;;;5.80;;
12228;SDS011;6177;52.402;9.800;2023-09-08T01:16:04;6.15;;;5.70;;
12228;SDS011;6177;52.402;9.800;2023-09-08T01:18:30;6.55;;;6.05;;
12228;SDS011;6177;52.402;9.800;2023-09-08T01:26:13;6.25;;;5.65;;
12228;SDS011;6177;52.402;9.800;2023-09-08T01:28:42;6.30;;;5.90;;
12228;SDS011;6177;52.402;9.800;2023-09-08T01:31:09;6.15;;;5.65;;
12228;SDS011;6177;52.402;9.800;2023-09-08T01:33:34;6.57;;;5.95;;
12228;SDS011;6177;52.402;9.800;2023-09-08T01:36:00;6.00;;;5.50;;
12228;SDS011;6177;52.402;9.800;2023-09-08T01:38:26;6.90;;;6.20;;
12228;SDS011;6177;52.402;9.800;2023-09-08T01:40:52;6.55;;;5.95;;
12228;SDS011;6177;52.402;9.800;2023-09-08T01:43:17;6.00;;;5.03;;
12228;SDS011;6177;52.402;9.800;2023-09-08T01:45:44;6.50;;;5.90;;
12228;SDS011;6177;52.402;9.800;2023-09-08T01:48:09;8.63;;;5.68;;
12228;SDS011;6177;52.402;9.800;2023-09-08T01:50:35;6.10;;;5.70;;
12228;SDS011;6177;52.402;9.800;2023-09-08T01:53:00;6.80;;;6.20;;
12228;SDS011;6177;52.402;9.800;2023-09-08T01:55:27;7.30;;;6.40;;
12228;SDS011;6177;52.402;9.800;2023-09-08T01:57:53;7.22;;;6.22;;
12228;SDS011;6177;52.402;9.800;2023-09-08T02:00:19;6.03;;;5.53;;
12228;SDS011;6177;52.402;9.800;2023-09-08T02:02:44;6.38;;;5.88;;
12228;SDS011;6177;52.402;9.800;2023-09-08T02:05:10;6.20;;;5.63;;
12228;SDS011;6177;52.402;9.800;2023-09-08T02:07:35;5.95;;;5.55;;
12228;SDS011;6177;52.402;9.800;2023-09-08T02:10:01;5.90;;;5.60;;
12228;SDS011;6177;52.402;9.800;2023-09-08T02:12:26;6.00;;;5.60;;
12228;SDS011;6177;52.402;9.800;2023-09-08T02:14:54;6.90;;;5.88;;
12228;SDS011;6177;52.402;9.800;2023-09-08T02:17:19;6.88;;;6.15;;
12228;SDS011;6177;52.402;9.800;2023-09-08T02:19:45;6.28;;;5.97;;
12228;SDS011;6177;52.402;9.800;2023-09-08T02:22:10;6.70;;;6.07;;
12228;SDS011;6177;52.402;9.800;2023-09-08T02:24:36;6.38;;;5.97;;
12228;SDS011;6177;52.402;9.800;2023-09-08T02:27:01;6.57;;;6.13;;
12228;SDS011;6177;52.402;9.800;2023-09-08T02:29:28;7.25;;;6.63;;
12228;SDS011;6177;52.402;9.800;2023-09-08T02:31:54;6.82;;;6.32;;
12228;SDS011;6177;52.402;9.800;2023-09-08T02:34:19;6.63;;;6.22;;
12228;SDS011;6177;52.402;9.800;2023-09-08T02:36:45;6.28;;;5.75;;
12228;SDS011;6177;52.402;9.800;2023-09-08T02:39:14;6.50;;;6.00;;
12228;SDS011;6177;52.402;9.800;2023-09-08T02:41:40;6.70;;;6.20;;
12228;SDS011;6177;52.402;9.800;2023-09-08T02:44:05;7.07;;;6.22;;
12228;SDS011;6177;52.402;9.800;2023-09-08T02:46:31;8.40;;;6.80;;
12228;SDS011;6177;52.402;9.800;2023-09-08T02:48:57;6.40;;;6.00;;
12228;SDS011;6177;52.402;9.800;2023-09-08T02:51:23;6.15;;;5.80;;
12228;SDS011;6177;52.402;9.800;2023-09-08T02:53:48;6.97;;;6.43;;
12228;SDS011;6177;52.402;9.800;2023-09-08T02:56:14;7.10;;;6.40;;
12228;SDS011;6177;52.402;9.800;2023-09-08T02:58:40;6.57;;;6.07;;
12228;SDS011;6177;52.402;9.800;2023-09-08T03:01:15;6.82;;;6.35;;
12228;SDS011;6177;52.402;9.800;2023-09-08T03:03:45;6.82;;;6.20;;
12228;SDS011;6177;52.402;9.800;2023-09-08T03:06:13;7.22;;;6.63;;
12228;SDS011;6177;52.402;9.800;2023-09-08T03:08:39;6.65;;;6.18;;
12228;SDS011;6177;52.402;9.800;2023-09-08T03:11:05;7.70;;;7.00;;
12228;SDS011;6177;52.402;9.800;2023-09-08T03:13:31;6.50;;;6.00;;
12228;SDS011;6177;52.402;9.800;2023-09-08T03:16:01;7.90;;;7.30;;
12228;SDS011;6177;52.402;9.800;2023-09-08T03:18:31;7.07;;;6.47;;
12228;SDS011;6177;52.402;9.800;2023-09-08T03:20:57;7.25;;;6.63;;
12228;SDS011;6177;52.402;9.800;2023-09-08T03:23:24;6.57;;;5.97;;
12228;SDS011;6177;52.402;9.800;2023-09-08T03:25:49;7.22;;;6.65;;
12228;SDS011;6177;52.402;9.800;2023-09-08T03:28:15;6.70;;;6.20;;
12228;SDS011;6177;52.402;9.800;2023-09-08T03:30:40;7.40;;;6.70;;
12228;SDS011;6177;52.402;9.800;2023-09-08T03:33:06;7.28;;;6.43;;
12228;SDS011;6177;52.402;9.800;2023-09-08T03:35:31;6.90;;;6.43;;
12228;SDS011;6177;52.402;9.800;2023-09-08T03:37:57;7.35;;;6.65;;
12228;SDS011;6177;52.402;9.800;2023-09-08T03:40:23;7.28;;;6.68;;
12228;SDS011;6177;52.402;9.800;2023-09-08T03:42:49;7.57;;;6.85;;
12228;SDS011;6177;52.402;9.800;2023-09-08T03:45:15;6.95;;;6.45;;
12228;SDS011;6177;52.402;9.800;2023-09-08T03:47:41;6.82;;;6.43;;
12228;SDS011;6177;52.402;9.800;2023-09-08T03:50:07;7.40;;;6.85;;
12228;SDS011;6177;52.402;9.800;2023-09-08T03:52:33;6.75;;;6.32;;
12228;SDS011;6177;52.402;9.800;2023-09-08T03:54:58;7.45;;;6.95;;
12228;SDS011;6177;52.402;9.800;2023-09-08T03:57:24;6.70;;;6.28;;
12228;SDS011;6177;52.402;9.800;2023-09-08T03:59:49;7.40;;;6.90;;
12228;SDS011;6177;52.402;9.800;2023-09-08T04:02:15;7.45;;;6.95;;
12228;SDS011;6177;52.402;9.800;2023-09-08T04:04:40;7.22;;;6.70;;
12228;SDS011;6177;52.402;9.800;2023-09-08T04:07:07;6.95;;;6.53;;
12228;SDS011;6177;52.402;9.800;2023-09-08T04:09:32;7.43;;;7.03;;
12228;SDS011;6177;52.402;9.800;2023-09-08T04:11:58;7.78;;;7.28;;
12228;SDS011;6177;52.402;9.800;2023-09-08T04:14:23;7.38;;;6.68;;
12228;SDS011;6177;52.402;9.800;2023-09-08T04:16:52;7.38;;;6.85;;
12228;SDS011;6177;52.402;9.800;2023-09-08T04:19:18;7.63;;;7.03;;
12228;SDS011;6177;52.402;9.800;2023-09-08T04:21:44;7.78;;;7.03;;
12228;SDS011;6177;52.402;9.800;2023-09-08T04:24:09;8.40;;;7.70;;
12228;SDS011;6177;52.402;9.800;2023-09-08T04:26:38;7.85;;;7.28;;
12228;SDS011;6177;52.402;9.800;2023-09-08T04:29:04;9.35;;;7.53;;
12228;SDS011;6177;52.402;9.800;2023-09-08T04:31:29;8.25;;;7.65;;
12228;SDS011;6177;52.402;9.800;2023-09-08T04:33:55;8.13;;;7.32;;
12228;SDS011;6177;52.402;9.800;2023-09-08T04:39:16;8.20;;;7.50;;
12228;SDS011;6177;52.402;9.800;2023-09-08T04:41:42;8.90;;;7.47;;
12228;SDS011;6177;52.402;9.800;2023-09-08T04:44:07;8.90;;;8.07;;
12228;SDS011;6177;52.402;9.800;2023-09-08T04:46:34;9.60;;;8.65;;
12228;SDS011;6177;52.402;9.800;2023-09-08T04:49:00;9.75;;;7.70;;
12228;SDS011;6177;52.402;9.800;2023-09-08T04:51:26;9.05;;;7.85;;
12228;SDS011;6177;52.402;9.800;2023-09-08T04:53:52;8.30;;;7.50;;
12228;SDS011;6177;52.402;9.800;2023-09-08T04:56:17;10.45;;;9.48;;
12228;SDS011;6177;52.402;9.800;2023-09-08T04:58:43;12.98;;;8.50;;
12228;SDS011;6177;52.402;9.800;2023-09-08T05:01:09;9.77;;;8.23;;
12228;SDS011;6177;52.402;9.800;2023-09-08T05:03:35;13.00;;;8.40;;
12228;SDS011;6177;52.402;9.800;2023-09-08T05:06:01;10.45;;;8.23;;
12228;SDS011;6177;52.402;9.800;2023-09-08T05:08:27;10.52;;;8.15;;
12228;SDS011;6177;52.402;9.800;2023-09-08T05:10:54;16.83;;;8.45;;
12228;SDS011;6177;52.402;9.800;2023-09-08T05:13:19;10.30;;;8.48;;
12228;SDS011;6177;52.402;9.800;2023-09-08T05:15:47;9.00;;;8.15;;
12228;SDS011;6177;52.402;9.800;2023-09-08T05:18:14;13.85;;;8.68;;
12228;SDS011;6177;52.402;9.800;2023-09-08T05:20:40;9.52;;;7.78;;
12228;SDS011;6177;52.402;9.800;2023-09-08T05:23:05;11.95;;;8.05;;
12228;SDS011;6177;52.402;9.800;2023-09-08T05:25:31;11.15;;;9.00;;
12228;SDS011;6177;52.402;9.800;2023-09-08T05:27:56;15.32;;;8.65;;
12228;SDS011;6177;52.402;9.800;2023-09-08T05:30:22;11.88;;;8.38;;
12228;SDS011;6177;52.402;9.800;2023-09-08T05:32:48;10.63;;;8.80;;
12228;SDS011;6177;52.402;9.800;2023-09-08T05:35:15;12.65;;;9.40;;
12228;SDS011;6177;52.402;9.800;2023-09-08T05:37:41;14.75;;;8.43;;
12228;SDS011;6177;52.402;9.800;2023-09-08T05:40:07;15.45;;;8.80;;
12228;SDS011;6177;52.402;9.800;2023-09-08T05:42:33;14.80;;;9.82;;
12228;SDS011;6177;52.402;9.800;2023-09-08T05:45:17;14.95;;;8.48;;
12228;SDS011;6177;52.402;9.800;2023-09-08T05:48:02;11.95;;;8.32;;
12228;SDS011;6177;52.402;9.800;2023-09-08T05:50:28;10.05;;;9.15;;
12228;SDS011;6177;52.402;9.800;2023-09-08T05:52:55;9.85;;;8.25;;
12228;SDS011;6177;52.402;9.800;2023-09-08T05:55:21;9.70;;;8.77;;
12228;SDS011;6177;52.402;9.800;2023-09-08T05:57:47;9.27;;;8.40;;
12228;SDS011;6177;52.402;9.800;2023-09-08T06:00:13;9.57;;;8.57;;
12228;SDS011;6177;52.402;9.800;2023-09-08T06:02:41;10.77;;;8.55;;
12228;SDS011;6177;52.402;9.800;2023-09-08T06:05:09;10.95;;;8.25;;
12228;SDS011;6177;52.402;9.800;2023-09-08T06:07:35;9.93;;;8.38;;
12228;SDS011;6177;52.402;9.800;2023-09-08T06:10:00;9.88;;;8.02;;
12228;SDS011;6177;52.402;9.800;2023-09-08T06:12:27;8.52;;;7.82;;
12228;SDS011;6177;52.402;9.800;2023-09-08T06:14:52;9.05;;;8.35;;
12228;SDS011;6177;52.402;9.800;2023-09-08T06:17:18;9.02;;;8.27;;
12228;SDS011;6177;52.402;9.800;2023-09-08T06:19:44;8.77;;;8.18;;
12228;SDS011;6177;52.402;9.800;2023-09-08T06:22:11;12.02;;;8.23;;
12228;SDS011;6177;52.402;9.800;2023-09-08T06:24:36;7.97;;;7.28;;
12228;SDS011;6177;52.402;9.800;2023-09-08T06:27:02;9.10;;;8.30;;
12228;SDS011;6177;52.402;9.800;2023-09-08T06:29:28;8.82;;;8.02;;
12228;SDS011;6177;52.402;9.800;2023-09-08T06:31:54;13.27;;;8.10;;
12228;SDS011;6177;52.402;9.800;2023-09-08T06:34:20;8.70;;;7.90;;
12228;SDS011;6177;52.402;9.800;2023-09-08T06:36:47;8.73;;;7.72;;
12228;SDS011;6177;52.402;9.800;2023-09-08T06:39:13;7.57;;;6.90;;
12228;SDS011;6177;52.402;9.800;2023-09-08T06:41:39;9.60;;;7.30;;
12228;SDS011;6177;52.402;9.800;2023-09-08T06:44:06;10.27;;;7.82;;
12228;SDS011;6177;52.402;9.800;2023-09-08T06:46:33;9.50;;;8.15;;
12228;SDS011;6177;52.402;9.800;2023-09-08T06:48:58;8.52;;;7.32;;
12228;SDS011;6177;52.402;9.800;2023-09-08T06:51:24;9.40;;;7.22;;
12228;SDS011;6177;52.402;9.800;2023-09-08T06:53:56;9.60;;;7.00;;
12228;SDS011;6177;52.402;9.800;2023-09-08T06:56:23;10.63;;;7.13;;
12228;SDS011;6177;52.402;9.800;2023-09-08T06:58:50;8.63;;;7.82;;
12228;SDS011;6177;52.402;9.800;2023-09-08T07:01:16;8.52;;;7.10;;
12228;SDS011;6177;52.402;9.800;2023-09-08T07:03:41;6.90;;;6.47;;
12228;SDS011;6177;52.402;9.800;2023-09-08T07:06:08;7.70;;;7.07;;
12228;SDS011;6177;52.402;9.800;2023-09-08T07:08:34;7.45;;;6.80;;
12228;SDS011;6177;52.402;9.800;2023-09-08T07:11:00;7.22;;;6.63;;
12228;SDS011;6177;52.402;9.800;2023-09-08T07:13:26;9.85;;;6.28;;
12228;SDS011;6177;52.402;9.800;2023-09-08T07:15:51;6.95;;;6.45;;
12228;SDS011;6177;52.402;9.800;2023-09-08T07:18:17;6.85;;;6.22;;
12228;SDS011;6177;52.402;9.800;2023-09-08T07:20:46;8.60;;;6.47;;
12228;SDS011;6177;52.402;9.800;2023-09-08T07:23:14;8.00;;;6.93;;
12228;SDS011;6177;52.402;9.800;2023-09-08T07:25:39;11.25;;;6.20;;
12228;SDS011;6177;52.402;9.800;2023-09-08T07:28:05;7.97;;;6.05;;
12228;SDS011;6177;52.402;9.800;2023-09-08T07:30:31;6.53;;;6.03;;
12228;SDS011;6177;52.402;9.800;2023-09-08T07:32:58;10.65;;;5.97;;
12228;SDS011;6177;52.402;9.800;2023-09-08T07:35:24;7.57;;;6.97;;
12228;SDS011;6177;52.402;9.800;2023-09-08T07:37:49;9.32;;;6.90;;
12228;SDS011;6177;52.402;9.800;2023-09-08T07:40:15;6.47;;;5.88;;
12228;SDS011;6177;52.402;9.800;2023-09-08T07:42:41;7.40;;;6.00;;
12228;SDS011;6177;52.402;9.800;2023-09-08T07:45:06;6.55;;;5.90;;
12228;SDS011;6177;52.402;9.800;2023-09-08T07:47:34;8.00;;;6.05;;
12228;SDS011;6177;52.402;9.800;2023-09-08T07:52:46;9.38;;;5.85;;
12228;SDS011;6177;52.402;9.800;2023-09-08T07:55:12;6.97;;;5.18;;
12228;SDS011;6177;52.402;9.800;2023-09-08T07:57:38;7.85;;;5.90;;
12228;SDS011;6177;52.402;9.800;2023-09-08T08:00:04;6.25;;;5.65;;
12228;SDS011;6177;52.402;9.800;2023-09-08T08:05:51;13.88;;;5.15;;
12228;SDS011;6177;52.402;9.800;2023-09-08T08:08:16;9.82;;;6.68;;
12228;SDS011;6177;52.402;9.800;2023-09-08T08:10:42;9.10;;;5.25;;
12228;SDS011;6177;52.402;9.800;2023-09-08T08:13:08;9.55;;;4.97;;
12228;SDS011;6177;52.402;9.800;2023-09-08T08:15:37;10.70;;;5.55;;
12228;SDS011;6177;52.402;9.800;2023-09-08T08:18:04;6.90;;;5.40;;
12228;SDS011;6177;52.402;9.800;2023-09-08T08:20:30;8.63;;;5.28;;
12228;SDS011;6177;52.402;9.800;2023-09-08T08:23:00;7.40;;;5.35;;
12228;SDS011;6177;52.402;9.800;2023-09-08T08:25:26;5.63;;;5.22;;
12228;SDS011;6177;52.402;9.800;2023-09-08T08:27:52;8.57;;;4.80;;
12228;SDS011;6177;52.402;9.800;2023-09-08T08:30:17;5.97;;;4.97;;
12228;SDS011;6177;52.402;9.800;2023-09-08T08:32:43;6.55;;;4.57;;
12228;SDS011;6177;52.402;9.800;2023-09-08T08:35:08;5.28;;;4.78;;
12228;SDS011;6177;52.402;9.800;2023-09-08T08:37:35;5.25;;;4.82;;
12228;SDS011;6177;52.402;9.800;2023-09-08T08:40:00;5.18;;;4.57;;
12228;SDS011;6177;52.402;9.800;2023-09-08T08:42:32;5.68;;;5.03;;
12228;SDS011;6177;52.402;9.800;2023-09-08T08:44:59;11.57;;;6.47;;
12228;SDS011;6177;52.402;9.800;2023-09-08T08:47:25;6.32;;;5.53;;
12228;SDS011;6177;52.402;9.800;2023-09-08T08:49:53;7.88;;;5.93;;
12228;SDS011;6177;52.402;9.800;2023-09-08T08:52:18;13.98;;;5.45;;
12228;SDS011;6177;52.402;9.800;2023-09-08T08:54:44;7.03;;;5.25;;
12228;SDS011;6177;52.402;9.800;2023-09-08T08:57:11;4.68;;;4.38;;
12228;SDS011;6177;52.402;9.800;2023-09-08T08:59:37;5.93;;;5.20;;
12228;SDS011;6177;52.402;9.800;2023-09-08T09:02:02;6.57;;;5.20;;
12228;SDS011;6177;52.402;9.800;2023-09-08T09:04:31;5.28;;;4.57;;
12228;SDS011;6177;52.402;9.800;2023-09-08T09:06:57;7.15;;;4.90;;
12228;SDS011;6177;52.402;9.800;2023-09-08T09:09:22;5.72;;;4.78;;
12228;SDS011;6177;52.402;9.800;2023-09-08T09:11:49;7.28;;;4.45;;
12228;SDS011;6177;52.402;9.800;2023-09-08T09:14:14;5.80;;;4.53;;
12228;SDS011;6177;52.402;9.800;2023-09-08T09:16:43;5.10;;;4.47;;
12228;SDS011;6177;52.402;9.800;2023-09-08T09:19:10;4.30;;;4.07;;
12228;SDS011;6177;52.402;9.800;2023-09-08T09:21:46;5.25;;;4.47;;
12228;SDS011;6177;52.402;9.800;2023-09-08T09:24:16;5.18;;;4.32;;
12228;SDS011;6177;52.402;9.800;2023-09-08T09:26:42;4.15;;;3.75;;
12228;SDS011;6177;52.402;9.800;2023-09-08T09:29:12;5.55;;;4.35;;
12228;SDS011;6177;52.402;9.800;2023-09-08T09:31:54;4.45;;;4.15;;
12228;SDS011;6177;52.402;9.800;2023-09-08T09:34:24;4.40;;;3.90;;
12228;SDS011;6177;52.402;9.800;2023-09-08T09:36:50;6.13;;;3.60;;
12228;SDS011;6177;52.402;9.800;2023-09-08T09:39:17;4.90;;;4.43;;
12228;SDS011;6177;52.402;9.800;2023-09-08T09:41:44;5.00;;;4.13;;
12228;SDS011;6177;52.402;9.800;2023-09-08T09:44:12;5.97;;;3.78;;
12228;SDS011;6177;52.402;9.800;2023-09-08T09:46:38;6.72;;;6.22;;
12228;SDS011;6177;52.402;9.800;2023-09-08T09:49:09;5.80;;;4.82;;
12228;SDS011;6177;52.402;9.800;2023-09-08T09:51:39;4.47;;;4.13;;
12228;SDS011;6177;52.402;9.800;2023-09-08T09:54:16;4.55;;;4.18;;
12228;SDS011;6177;52.402;9.800;2023-09-08T09:56:42;3.88;;;3.53;;
12228;SDS011;6177;52.402;9.800;2023-09-08T09:59:08;4.47;;;4.15;;
12228;SDS011;6177;52.402;9.800;2023-09-08T10:01:35;4.32;;;4.00;;
12228;SDS011;6177;52.402;9.800;2023-09-08T10:04:02;3.63;;;3.42;;
12228;SDS011;6177;52.402;9.800;2023-09-08T10:06:33;4.47;;;3.50;;
12228;SDS011;6177;52.402;9.800;2023-09-08T10:09:00;4.45;;;4.10;;
12228;SDS011;6177;52.402;9.800;2023-09-08T10:11:28;4.18;;;3.97;;
12228;SDS011;6177;52.402;9.800;2023-09-08T10:13:56;3.85;;;3.55;;
12228;SDS011;6177;52.402;9.800;2023-09-08T10:16:23;5.88;;;5.32;;
12228;SDS011;6177;52.402;9.800;2023-09-08T10:18:51;3.53;;;3.42;;
12228;SDS011;6177;52.402;9.800;2023-09-08T10:21:17;7.68;;;4.07;;
12228;SDS011;6177;52.402;9.800;2023-09-08T10:23:45;7.03;;;4.13;;
12228;SDS011;6177;52.402;9.800;2023-09-08T10:26:19;7.30;;;4.07;;
12228;SDS011;6177;52.402;9.800;2023-09-08T10:28:47;4.35;;;4.10;;
12228;SDS011;6177;52.402;9.800;2023-09-08T10:31:14;5.15;;;4.07;;
12228;SDS011;6177;52.402;9.800;2023-09-08T10:33:39;6.15;;;4.30;;
12228;SDS011;6177;52.402;9.800;2023-09-08T10:36:06;4.63;;;4.32;;
12228;SDS011;6177;52.402;9.800;2023-09-08T10:38:33;4.47;;;4.10;;
12228;SDS011;6177;52.402;9.800;2023-09-08T10:43:46;4.53;;;4.00;;
12228;SDS011;6177;52.402;9.800;2023-09-08T10:46:30;4.38;;;4.00;;
12228;SDS011;6177;52.402;9.800;2023-09-08T10:49:05;8.98;;;4.35;;
12228;SDS011;6177;52.402;9.800;2023-09-08T10:51:32;4.72;;;4.10;;
12228;SDS011;6177;52.402;9.800;2023-09-08T10:54:00;6.18;;;4.28;;
12228;SDS011;6177;52.402;9.800;2023-09-08T10:59:15;4.55;;;4.10;;
12228;SDS011;6177;52.402;9.800;2023-09-08T11:01:40;4.05;;;3.85;;
12228;SDS011;6177;52.402;9.800;2023-09-08T11:04:06;5.68;;;4.25;;
12228;SDS011;6177;52.402;9.800;2023-09-08T11:06:35;3.95;;;3.65;;
12228;SDS011;6177;52.402;9.800;2023-09-08T11:09:07;4.15;;;3.95;;
12228;SDS011;6177;52.402;9.800;2023-09-08T11:11:33;4.63;;;4.28;;
12228;SDS011;6177;52.402;9.800;2023-09-08T11:13:59;4.88;;;3.60;;
12228;SDS011;6177;52.402;9.800;2023-09-08T11:16:24;4.93;;;3.80;;
12228;SDS011;6177;52.402;9.800;2023-09-08T11:18:54;3.70;;;3.50;;
12228;SDS011;6177;52.402;9.800;2023-09-08T11:21:20;4.15;;;3.42;;
12228;SDS011;6177;52.402;9.800;2023-09-08T11:23:45;3.50;;;3.30;;
12228;SDS011;6177;52.402;9.800;2023-09-08T11:26:11;4.38;;;4.00;;
12228;SDS011;6177;52.402;9.800;2023-09-08T11:28:37;4.03;;;3.67;;
12228;SDS011;6177;52.402;9.800;2023-09-08T11:31:03;4.13;;;3.78;;
12228;SDS011;6177;52.402;9.800;2023-09-08T11:33:32;3.53;;;3.42;;
12228;SDS011;6177;52.402;9.800;2023-09-08T11:35:59;3.60;;;3.35;;
12228;SDS011;6177;52.402;9.800;2023-09-08T11:38:25;3.58;;;3.17;;
12228;SDS011;6177;52.402;9.800;2023-09-08T11:40:52;3.00;;;2.80;;
12228;SDS011;6177;52.402;9.800;2023-09-08T11:43:22;3.30;;;3.10;;
12228;SDS011;6177;52.402;9.800;2023-09-08T11:45:48;3.25;;;2.95;;
12228;SDS011;6177;52.402;9.800;2023-09-08T11:48:14;3.45;;;3.25;;
12228;SDS011;6177;52.402;9.800;2023-09-08T11:50:41;3.50;;;3.20;;
12228;SDS011;6177;52.402;9.800;2023-09-08T11:53:07;3.53;;;3.33;;
12228;SDS011;6177;52.402;9.800;2023-09-08T11:55:32;3.72;;;2.78;;
12228;SDS011;6177;52.402;9.800;2023-09-08T11:57:58;3.25;;;3.05;;
12228;SDS011;6177;52.402;9.800;2023-09-08T12:00:26;3.10;;;2.85;;
12228;SDS011;6177;52.402;9.800;2023-09-08T12:02:52;5.30;;;3.17;;
12228;SDS011;6177;52.402;9.800;2023-09-08T12:05:24;2.95;;;2.67;;
12228;SDS011;6177;52.402;9.800;2023-09-08T12:07:51;2.78;;;2.58;;
12228;SDS011;6177;52.402;9.800;2023-09-08T12:10:17;3.22;;;3.03;;
12228;SDS011;6177;52.402;9.800;2023-09-08T12:12:53;3.85;;;3.50;;
12228;SDS011;6177;52.402;9.800;2023-09-08T12:15:30;3.30;;;3.10;;
12228;SDS011;6177;52.402;9.800;2023-09-08T12:17:57;3.28;;;3.03;;
12228;SDS011;6177;52.402;9.800;2023-09-08T12:20:23;3.28;;;2.70;;
12228;SDS011;6177;52.402;9.800;2023-09-08T12:22:49;3.33;;;3.22;;
12228;SDS011;6177;52.402;9.800;2023-09-08T12:25:15;2.60;;;2.50;;
12228;SDS011;6177;52.402;9.800;2023-09-08T12:27:41;2.40;;;2.30;;
12228;SDS011;6177;52.402;9.800;2023-09-08T12:30:07;3.75;;;2.72;;
12228;SDS011;6177;52.402;9.800;2023-09-08T12:32:34;2.55;;;2.45;;
12228;SDS011;6177;52.402;9.800;2023-09-08T12:35:01;2.60;;;2.50;;
12228;SDS011;6177;52.402;9.800;2023-09-08T12:37:28;2.92;;;2.72;;
12228;SDS011;6177;52.402;9.800;2023-09-08T12:39:55;2.80;;;2.70;;
12228;SDS011;6177;52.402;9.800;2023-09-08T12:42:21;2.90;;;2.67;;
12228;SDS011;6177;52.402;9.800;2023-09-08T12:44:50;3.00;;;2.80;;
12228;SDS011;6177;52.402;9.800;2023-09-08T12:47:16;2.42;;;2.33;;
12228;SDS011;6177;52.402;9.800;2023-09-08T12:49:42;2.33;;;2.25;;
12228;SDS011;6177;52.402;9.800;2023-09-08T12:52:07;4.55;;;2.38;;
12228;SDS011;6177;52.402;9.800;2023-09-08T12:54:34;3.03;;;2.83;;
12228;SDS011;6177;52.402;9.800;2023-09-08T12:57:01;2.33;;;2.22;;
12228;SDS011;6177;52.402;9.800;2023-09-08T12:59:26;3.83;;;2.28;;
12228;SDS011;6177;52.402;9.800;2023-09-08T13:01:52;2.60;;;2.40;;
12228;SDS011;6177;52.402;9.800;2023-09-08T13:04:18;2.70;;;2.60;;
12228;SDS011;6177;52.402;9.800;2023-09-08T13:06:44;2.17;;;2.08;;
12228;SDS011;6177;52.402;9.800;2023-09-08T13:09:10;3.47;;;2.45;;
12228;SDS011;6177;52.402;9.800;2023-09-08T13:11:36;2.65;;;2.28;;
12228;SDS011;6177;52.402;9.800;2023-09-08T13:14:02;4.82;;;2.75;;
12228;SDS011;6177;52.402;9.800;2023-09-08T13:16:27;1.98;;;1.95;;
12228;SDS011;6177;52.402;9.800;2023-09-08T13:18:53;2.60;;;2.20;;
12228;SDS011;6177;52.402;9.800;2023-09-08T13:21:18;2.30;;;2.20;;
12228;SDS011;6177;52.402;9.800;2023-09-08T13:23:44;2.42;;;2.08;;
12228;SDS011;6177;52.402;9.800;2023-09-08T13:26:09;2.10;;;1.92;;
12228;SDS011;6177;52.402;9.800;2023-09-08T13:28:34;2.03;;;1.92;;
12228;SDS011;6177;52.402;9.800;2023-09-08T13:31:00;1.90;;;1.90;;
12228;SDS011;6177;52.402;9.800;2023-09-08T13:33:26;1.75;;;1.60;;
12228;SDS011;6177;52.402;9.800;2023-09-08T13:35:52;2.00;;;1.98;;
12228;SDS011;6177;52.402;9.800;2023-09-08T13:38:18;1.90;;;1.90;;
12228;SDS011;6177;52.402;9.800;2023-09-08T13:41:08;2.00;;;1.88;;
12228;SDS011;6177;52.402;9.800;2023-09-08T13:43:59;2.10;;;1.95;;
12228;SDS011;6177;52.402;9.800;2023-09-08T13:46:50;1.95;;;1.95;;
12228;SDS011;6177;52.402;9.800;2023-09-08T13:49:42;2.03;;;1.92;;
12228;SDS011;6177;52.402;9.800;2023-09-08T13:52:33;1.60;;;1.50;;
12228;SDS011;6177;52.402;9.800;2023-09-08T13:55:24;2.50;;;2.30;;
12228;SDS011;6177;52.402;9.800;2023-09-08T13:58:15;3.22;;;2.08;;
12228;SDS011;6177;52.402;9.800;2023-09-08T14:01:06;2.30;;;2.10;;
12228;SDS011;6177;52.402;9.800;2023-09-08T14:03:57;2.03;;;1.98;;
12228;SDS011;6177;52.402;9.800;2023-09-08T14:06:48;2.30;;;2.10;;
12228;SDS011;6177;52.402;9.800;2023-09-08T14:09:39;2.80;;;2.28;;
12228;SDS011;6177;52.402;9.800;2023-09-08T14:12:30;2.33;;;2.22;;
12228;SDS011;6177;52.402;9.800;2023-09-08T14:15:21;2.70;;;2.45;;
12228;SDS011;6177;52.402;9.800;2023-09-08T14:18:12;2.25;;;2.15;;
12228;SDS011;6177;52.402;9.800;2023-09-08T14:21:04;2.40;;;2.30;;
12228;SDS011;6177;52.402;9.800;2023-09-08T14:23:55;2.05;;;2.03;;
12228;SDS011;6177;52.402;9.800;2023-09-08T14:26:45;2.63;;;1.98;;
12228;SDS011;6177;52.402;9.800;2023-09-08T14:29:36;2.53;;;2.22;;
12228;SDS011;6177;52.402;9.800;2023-09-08T14:32:27;2.58;;;2.35;;
12228;SDS011;6177;52.402;9.800;2023-09-08T14:35:18;2.33;;;2.10;;
12228;SDS011;6177;52.402;9.800;2023-09-08T14:38:10;2.15;;;2.05;;
12228;SDS011;6177;52.402;9.800;2023-09-08T14:41:01;2.60;;;2.50;;
12228;SDS011;6177;52.402;9.800;2023-09-08T14:43:52;3.15;;;2.13;;
12228;SDS011;6177;52.402;9.800;2023-09-08T14:46:42;2.58;;;2.58;;
12228;SDS011;6177;52.402;9.800;2023-09-08T14:49:33;2.47;;;2.38;;
12228;SDS011;6177;52.402;9.800;2023-09-08T14:52:24;2.40;;;2.30;;
12228;SDS011;6177;52.402;9.800;2023-09-08T14:55:15;2.30;;;2.20;;
12228;SDS011;6177;52.402;9.800;2023-09-08T14:58:06;2.00;;;2.00;;
12228;SDS011;6177;52.402;9.800;2023-09-08T15:00:58;2.63;;;2.22;;
12228;SDS011;6177;52.402;9.800;2023-09-08T15:03:52;2.78;;;2.70;;
12228;SDS011;6177;52.402;9.800;2023-09-08T15:06:45;3.08;;;2.33;;
12228;SDS011;6177;52.402;9.800;2023-09-08T15:09:36;3.40;;;2.33;;
12228;SDS011;6177;52.402;9.800;2023-09-08T15:12:27;5.65;;;2.40;;
12228;SDS011;6177;52.402;9.800;2023-09-08T15:15:18;3.95;;;2.53;;
12228;SDS011;6177;52.402;9.800;2023-09-08T15:18:14;2.00;;;1.90;;
12228;SDS011;6177;52.402;9.800;2023-09-08T15:21:07;3.42;;;2.10;;
12228;SDS011;6177;52.402;9.800;2023-09-08T15:23:58;2.50;;;2.30;;
12228;SDS011;6177;52.402;9.800;2023-09-08T15:26:49;3.53;;;2.45;;
12228;SDS011;6177;52.402;9.800;2023-09-08T15:29:40;3.55;;;3.25;;
12228;SDS011;6177;52.402;9.800;2023-09-08T15:32:31;3.17;;;2.65;;